Time;durP1;ratioP1;P1;durP2;ratioP2;P2;SDS_P1;SDS_P2;PMS_P1;PMS_P2;Temp;Humidity;BMP_temperature;BMP_pressure;BME280_temperature;BME280_humidity;BME280_pressure;Samples;Min_cycle;Max_cycle;Signal;HPM_P1;HPM_P2
2023/06/01 00:01:01;;;;;;;8.25;4.82;;;11.90;99.90;;;;;;5075130;28;20048;-82
2023/06/01 00:03:29;;;;;;;8.73;4.78;;;11.90;99.90;;;;;;5092644;28;20055;-82
2023/06/01 00:05:56;;;;;;;7.22;4.93;;;12.00;99.90;;;;;;5084372;28;20051;-82
2023/06/01 00:08:22;;;;;;;10.70;4.90;;;11.90;99.90;;;;;;5066212;28;20073;-82
2023/06/01 00:10:48;;;;;;;9.00;4.50;;;11.80;99.90;;;;;;5066125;28;20049;-82
2023/06/01 00:13:14;;;;;;;10.50;4.72;;;11.80;99.90;;;;;;5085445;28;20500;-82
2023/06/01 00:15:40;;;;;;;8.65;4.80;;;11.80;99.90;;;;;;5085720;28;20399;-82
2023/06/01 00:18:06;;;;;;;9.57;5.03;;;11.80;99.90;;;;;;5085324;28;20040;-82
2023/06/01 00:20:32;;;;;;;6.55;4.53;;;11.80;99.90;;;;;;5074217;28;20032;-82
2023/06/01 00:22:59;;;;;;;11.38;4.53;;;11.80;99.90;;;;;;5066149;28;20423;-82
2023/06/01 00:25:25;;;;;;;9.13;4.65;;;12.10;99.90;;;;;;5066610;28;20075;-82
2023/06/01 00:27:50;;;;;;;7.78;4.95;;;11.70;99.90;;;;;;5077179;28;20820;-82
2023/06/01 00:30:16;;;;;;;7.82;4.60;;;11.70;99.90;;;;;;5087501;28;20059;-82
2023/06/01 00:32:42;;;;;;;10.48;4.75;;;11.70;99.90;;;;;;5076356;28;20056;-82
2023/06/01 00:35:07;;;;;;;9.13;4.70;;;11.70;99.90;;;;;;5087549;28;20036;-81
2023/06/01 00:37:33;;;;;;;12.55;5.15;;;11.70;99.90;;;;;;5054852;28;20047;-82
2023/06/01 00:39:59;;;;;;;10.30;4.40;;;11.70;99.90;;;;;;5076765;28;20076;-82
2023/06/01 00:42:25;;;;;;;8.35;4.05;;;11.70;99.90;;;;;;5073337;28;20424;-82
2023/06/01 00:44:53;;;;;;;11.55;4.60;;;11.70;99.90;;;;;;5050009;28;20048;-82
2023/06/01 00:47:19;;;;;;;12.77;4.60;;;11.80;99.90;;;;;;5077954;28;20040;-82
2023/06/01 00:49:45;;;;;;;8.82;4.35;;;11.80;99.90;;;;;;5058029;28;20083;-82
2023/06/01 00:52:13;;;;;;;9.98;4.32;;;11.80;99.90;;;;;;5077675;28;20132;-82
2023/06/01 00:54:39;;;;;;;9.23;3.88;;;11.80;99.90;;;;;;5084189;28;20044;-82
2023/06/01 00:57:06;;;;;;;13.50;5.03;;;11.80;99.90;;;;;;5085865;28;20032;-82
2023/06/01 00:59:33;;;;;;;8.98;4.40;;;11.80;99.90;;;;;;5079707;28;20040;-82
2023/06/01 01:01:59;;;;;;;7.85;4.47;;;12.00;99.90;;;;;;5078126;28;20047;-82
2023/06/01 01:04:30;;;;;;;12.73;5.32;;;11.80;99.90;;;;;;5076849;28;20040;-82
2023/06/01 01:07:20;;;;;;;10.25;4.97;;;11.70;99.90;;;;;;5068531;28;20040;-82
2023/06/01 01:10:06;;;;;;;17.30;5.68;;;11.70;99.90;;;;;;5069962;28;20056;-82
2023/06/01 01:12:50;;;;;;;10.75;4.82;;;11.70;99.90;;;;;;5067286;28;20391;-81
2023/06/01 01:15:37;;;;;;;11.15;4.90;;;11.70;99.90;;;;;;5086820;28;20495;-82
2023/06/01 01:18:09;;;;;;;9.68;5.00;;;11.70;99.90;;;;;;5094348;28;20050;-82
2023/06/01 01:20:38;;;;;;;11.05;5.43;;;11.70;99.90;;;;;;5085438;28;20075;-82
2023/06/01 01:23:16;;;;;;;13.20;5.00;;;11.70;99.90;;;;;;5066070;28;20055;-82
2023/06/01 01:26:12;;;;;;;11.13;5.03;;;11.70;99.90;;;;;;5066610;28;20037;-82
2023/06/01 01:29:07;;;;;;;9.38;5.15;;;11.70;99.90;;;;;;5082639;28;20553;-83
2023/06/01 01:31:34;;;;;;;10.65;4.97;;;11.70;99.90;;;;;;5062923;28;20522;-82
2023/06/01 01:34:01;;;;;;;14.70;5.88;;;12.10;99.90;;;;;;5068491;28;20552;-82
2023/06/01 01:36:28;;;;;;;9.55;5.10;;;11.70;99.90;;;;;;5076690;28;20416;-82
2023/06/01 01:38:54;;;;;;;9.25;5.03;;;11.70;99.90;;;;;;5069074;28;20140;-82
2023/06/01 01:41:21;;;;;;;10.90;5.50;;;11.70;99.90;;;;;;5068919;28;20503;-82
2023/06/01 01:43:48;;;;;;;10.70;4.90;;;11.60;99.90;;;;;;5068550;28;20090;-82
2023/06/01 01:46:25;;;;;;;9.63;4.78;;;11.60;99.90;;;;;;5051455;28;21337;-83
2023/06/01 01:49:26;;;;;;;8.75;4.40;;;11.50;99.90;;;;;;5069209;28;20123;-82
2023/06/01 01:52:06;;;;;;;6.95;4.15;;;11.50;99.90;;;;;;5053604;28;20091;-82
2023/06/01 01:54:34;;;;;;;7.78;3.95;;;11.40;99.90;;;;;;5069117;28;20049;-82
2023/06/01 01:57:01;;;;;;;11.50;5.15;;;11.50;99.90;;;;;;5069579;28;20047;-83
2023/06/01 01:59:30;;;;;;;13.20;5.22;;;11.80;99.90;;;;;;5068910;28;20059;-82
2023/06/01 02:01:56;;;;;;;9.82;4.72;;;11.40;99.90;;;;;;5073993;28;20040;-83
2023/06/01 02:04:22;;;;;;;9.43;4.93;;;11.40;99.90;;;;;;5090238;28;20461;-83
2023/06/01 02:06:47;;;;;;;8.25;4.40;;;11.40;99.90;;;;;;5083164;28;20048;-82
2023/06/01 02:09:13;;;;;;;8.88;4.65;;;11.40;99.90;;;;;;5051293;28;20071;-82
2023/06/01 02:11:39;;;;;;;11.77;5.45;;;11.40;99.90;;;;;;5068059;28;20411;-82
2023/06/01 02:14:04;;;;;;;8.57;4.50;;;11.40;99.90;;;;;;5078636;28;20040;-83
2023/06/01 02:16:30;;;;;;;8.75;4.70;;;11.40;99.90;;;;;;5058513;28;20048;-82
2023/06/01 02:18:57;;;;;;;10.90;5.20;;;11.40;99.90;;;;;;5086602;28;20070;-82
2023/06/01 02:21:24;;;;;;;12.65;5.38;;;11.80;99.90;;;;;;5055899;28;20036;-83
2023/06/01 02:23:49;;;;;;;9.52;5.05;;;11.40;99.90;;;;;;5067933;28;20051;-82
2023/06/01 02:26:16;;;;;;;10.52;4.90;;;11.40;99.90;;;;;;5068084;28;20048;-82
2023/06/01 02:28:42;;;;;;;9.48;4.70;;;11.40;99.90;;;;;;5070610;28;20044;-82
2023/06/01 02:31:08;;;;;;;7.90;4.45;;;11.30;99.90;;;;;;5088848;28;20055;-82
2023/06/01 02:33:34;;;;;;;6.57;4.85;;;11.30;99.90;;;;;;5086591;28;20048;-82
2023/06/01 02:36:03;;;;;;;8.80;4.07;;;11.30;99.90;;;;;;5072942;28;20066;-82
2023/06/01 02:38:28;;;;;;;9.13;4.80;;;11.30;99.90;;;;;;5071900;28;20431;-82
2023/06/01 02:40:54;;;;;;;8.60;4.72;;;11.30;99.90;;;;;;5071300;28;20036;-83
2023/06/01 02:43:20;;;;;;;9.02;4.40;;;11.30;99.90;;;;;;5067411;28;20036;-82
2023/06/01 02:45:45;;;;;;;10.82;5.05;;;11.30;99.90;;;;;;5067526;28;20044;-83
2023/06/01 02:48:11;;;;;;;12.77;5.65;;;11.30;99.90;;;;;;5083595;28;20508;-83
2023/06/01 02:50:36;;;;;;;10.77;4.93;;;11.30;99.90;;;;;;5070378;28;20049;-83
2023/06/01 02:53:02;;;;;;;11.35;5.03;;;11.30;99.90;;;;;;5079943;28;20495;-82
2023/06/01 02:55:28;;;;;;;6.80;4.30;;;11.30;99.90;;;;;;5067694;28;20051;-82
2023/06/01 02:57:53;;;;;;;9.60;4.95;;;11.30;99.90;;;;;;5069366;28;20466;-82
2023/06/01 03:00:19;;;;;;;8.93;4.80;;;11.80;99.90;;;;;;5095720;28;20040;-82
2023/06/01 03:02:46;;;;;;;9.23;5.05;;;11.40;99.90;;;;;;5070839;28;20043;-82
2023/06/01 03:05:16;;;;;;;9.52;4.95;;;11.40;99.90;;;;;;5054758;28;20051;-82
2023/06/01 03:07:43;;;;;;;6.90;4.65;;;11.40;99.90;;;;;;5073998;28;20041;-82
2023/06/01 03:10:08;;;;;;;8.52;4.63;;;11.40;99.90;;;;;;5065550;28;20074;-83
2023/06/01 03:12:34;;;;;;;9.93;5.50;;;11.90;99.90;;;;;;5077583;28;20040;-83
2023/06/01 03:15:00;;;;;;;9.68;5.18;;;11.40;99.90;;;;;;5055891;28;20048;-83
2023/06/01 03:17:25;;;;;;;9.85;5.38;;;11.50;99.90;;;;;;5072369;28;20416;-82
2023/06/01 03:19:51;;;;;;;10.70;5.28;;;11.40;99.90;;;;;;5061104;28;20044;-82
2023/06/01 03:22:17;;;;;;;9.23;5.30;;;11.40;99.90;;;;;;5050674;28;20041;-82
2023/06/01 03:24:43;;;;;;;9.02;4.95;;;11.40;99.90;;;;;;5073693;28;20101;-82
2023/06/01 03:27:13;;;;;;;11.88;6.00;;;11.50;99.90;;;;;;5097712;28;20048;-82
2023/06/01 03:29:38;;;;;;;11.13;5.57;;;11.50;99.90;;;;;;5049685;28;20113;-82
2023/06/01 03:32:05;;;;;;;9.60;5.40;;;11.50;99.90;;;;;;5067882;28;20130;-82
2023/06/01 03:34:32;;;;;;;11.75;5.30;;;11.50;99.90;;;;;;5065734;28;20040;-83
2023/06/01 03:36:58;;;;;;;10.73;5.47;;;11.50;99.90;;;;;;5068800;28;20801;-82
2023/06/01 03:39:23;;;;;;;8.85;4.85;;;11.50;99.90;;;;;;5067296;28;20059;-82
2023/06/01 03:41:49;;;;;;;8.43;5.10;;;12.00;99.90;;;;;;5067599;28;20124;-82
2023/06/01 03:44:15;;;;;;;8.57;5.40;;;11.50;99.90;;;;;;5080251;28;20033;-82
2023/06/01 03:46:40;;;;;;;11.80;4.78;;;11.50;99.90;;;;;;5066624;28;20125;-83
2023/06/01 03:49:06;;;;;;;9.40;4.78;;;11.50;99.90;;;;;;5064961;28;20120;-83
2023/06/01 03:51:32;;;;;;;7.93;4.28;;;11.70;99.90;;;;;;5087598;28;20045;-84
2023/06/01 03:53:57;;;;;;;10.50;4.45;;;11.50;99.90;;;;;;5060583;28;20043;-82
2023/06/01 03:56:23;;;;;;;9.52;4.07;;;11.50;99.90;;;;;;5083587;28;20447;-82
2023/06/01 03:58:50;;;;;;;7.72;4.03;;;11.50;99.90;;;;;;5059199;28;20040;-81
2023/06/01 04:01:19;;;;;;;8.52;4.25;;;11.50;99.90;;;;;;5059784;28;20495;-81
2023/06/01 04:03:48;;;;;;;6.78;4.10;;;11.50;99.90;;;;;;5067807;28;20083;-81
2023/06/01 04:06:17;;;;;;;6.60;3.53;;;11.60;99.90;;;;;;5068303;28;20037;-82
2023/06/01 04:08:48;;;;;;;8.32;3.58;;;11.60;99.90;;;;;;5075036;27;20127;-81
2023/06/01 04:11:17;;;;;;;8.98;3.88;;;11.50;99.90;;;;;;5066424;28;20841;-82
2023/06/01 04:13:46;;;;;;;8.20;3.28;;;11.50;99.90;;;;;;5082072;28;20079;-82
2023/06/01 04:16:12;;;;;;;7.03;3.40;;;11.50;99.90;;;;;;5080658;28;20080;-82
2023/06/01 04:18:37;;;;;;;5.45;3.38;;;11.60;99.90;;;;;;5060527;28;20102;-82
2023/06/01 04:21:03;;;;;;;6.55;3.42;;;11.90;99.90;;;;;;5068688;28;20044;-82
2023/06/01 04:23:29;;;;;;;8.52;3.25;;;11.60;99.90;;;;;;5081125;28;20036;-82
2023/06/01 04:25:58;;;;;;;5.65;3.30;;;11.60;99.90;;;;;;5065679;28;20048;-83
2023/06/01 04:28:24;;;;;;;7.05;3.40;;;11.60;99.90;;;;;;5065326;28;20052;-82
2023/06/01 04:30:51;;;;;;;6.60;3.42;;;11.60;99.90;;;;;;5082904;28;20079;-82
2023/06/01 04:33:17;;;;;;;5.90;3.60;;;11.60;99.90;;;;;;5073475;28;20127;-81
2023/06/01 04:35:43;;;;;;;6.95;3.38;;;11.80;99.90;;;;;;5065678;28;20115;-82
2023/06/01 04:38:09;;;;;;;8.30;4.13;;;11.60;99.90;;;;;;5050338;28;20574;-82
2023/06/01 04:40:35;;;;;;;6.57;3.95;;;11.60;99.90;;;;;;5060204;28;20123;-82
2023/06/01 04:43:02;;;;;;;8.35;4.28;;;11.60;99.90;;;;;;5065464;28;20127;-82
2023/06/01 04:45:30;;;;;;;8.40;3.95;;;11.60;99.90;;;;;;5064768;28;20048;-82
2023/06/01 04:47:57;;;;;;;8.85;4.30;;;11.60;99.90;;;;;;5066562;28;20500;-82
2023/06/01 04:50:23;;;;;;;8.05;3.97;;;11.90;99.90;;;;;;5066847;28;20053;-83
2023/06/01 04:52:49;;;;;;;6.00;5.07;;;11.70;99.90;;;;;;5069443;28;20404;-82
2023/06/01 04:55:16;;;;;;;6.82;4.05;;;11.70;99.90;;;;;;5060250;28;20117;-82
2023/06/01 04:57:45;;;;;;;7.50;4.05;;;11.70;99.90;;;;;;5077280;28;20040;-83
2023/06/01 05:00:13;;;;;;;7.30;4.25;;;11.70;99.90;;;;;;5080468;28;20033;-83
2023/06/01 05:02:43;;;;;;;10.77;5.30;;;11.70;99.90;;;;;;5067007;28;20056;-83
2023/06/01 05:05:09;;;;;;;9.27;4.25;;;12.00;99.90;;;;;;5070872;28;20840;-83
2023/06/01 05:07:38;;;;;;;8.32;4.82;;;11.80;99.90;;;;;;5090013;28;20055;-83
2023/06/01 05:10:09;;;;;;;7.60;4.10;;;11.80;99.90;;;;;;5058660;28;20055;-83
2023/06/01 05:12:36;;;;;;;17.55;4.60;;;11.80;99.90;;;;;;5078903;28;20104;-84
2023/06/01 05:15:04;;;;;;;8.82;4.15;;;11.80;99.90;;;;;;5086957;28;20051;-83
2023/06/01 05:17:29;;;;;;;12.20;4.20;;;11.90;99.90;;;;;;5068502;28;20052;-83
2023/06/01 05:19:56;;;;;;;11.45;4.53;;;11.90;99.90;;;;;;5070680;28;20799;-84
2023/06/01 05:22:22;;;;;;;10.45;4.03;;;11.90;99.90;;;;;;5085352;28;20055;-83
2023/06/01 05:24:48;;;;;;;8.73;4.07;;;11.90;99.90;;;;;;5091410;28;20177;-84
2023/06/01 05:27:14;;;;;;;10.43;4.53;;;11.90;99.90;;;;;;5082652;28;20147;-83
2023/06/01 05:29:40;;;;;;;7.50;4.07;;;11.90;99.90;;;;;;5101824;28;20396;-83
2023/06/01 05:32:06;;;;;;;6.55;4.53;;;11.90;99.90;;;;;;5088522;28;20040;-84
2023/06/01 05:34:32;;;;;;;8.15;4.22;;;11.90;99.90;;;;;;5089947;28;20058;-83
2023/06/01 05:36:57;;;;;;;10.50;4.70;;;11.90;99.90;;;;;;5089009;28;20044;-83
2023/06/01 05:39:27;;;;;;;8.07;4.30;;;11.80;99.90;;;;;;5089484;28;20055;-83
2023/06/01 05:41:53;;;;;;;11.93;5.45;;;11.80;99.90;;;;;;5072713;28;20048;-83
2023/06/01 05:44:19;;;;;;;11.65;5.13;;;11.80;99.90;;;;;;5090476;28;20047;-82
2023/06/01 05:46:45;;;;;;;9.40;4.82;;;11.80;99.90;;;;;;5088033;28;20040;-84
2023/06/01 05:49:10;;;;;;;7.38;4.70;;;11.80;99.90;;;;;;5094333;28;20048;-84
2023/06/01 05:51:37;;;;;;;8.07;4.38;;;11.70;99.90;;;;;;5089350;28;20040;-83
2023/06/01 05:54:04;;;;;;;8.18;4.30;;;11.70;99.90;;;;;;5089139;28;20044;-83
2023/06/01 05:56:30;;;;;;;8.50;3.83;;;11.80;99.90;;;;;;5088996;28;20059;-83
2023/06/01 05:58:56;;;;;;;8.80;3.78;;;11.80;99.90;;;;;;5088781;28;20054;-83
2023/06/01 06:01:22;;;;;;;10.32;4.15;;;11.80;99.90;;;;;;5089351;28;20779;-82
2023/06/01 06:03:48;;;;;;;8.95;4.30;;;11.80;99.90;;;;;;5093115;28;20044;-83
2023/06/01 06:06:13;;;;;;;10.02;4.03;;;11.80;99.90;;;;;;5088601;28;20059;-84
2023/06/01 06:08:39;;;;;;;6.30;3.67;;;11.80;99.90;;;;;;5108481;28;20150;-82
2023/06/01 06:11:05;;;;;;;9.32;4.07;;;12.00;99.90;;;;;;5109471;28;20055;-83
2023/06/01 06:13:30;;;;;;;9.02;4.13;;;11.90;99.90;;;;;;5109336;28;20051;-83
2023/06/01 06:15:56;;;;;;;6.00;3.60;;;12.00;99.90;;;;;;5109173;28;20337;-83
2023/06/01 06:18:22;;;;;;;7.63;3.70;;;12.20;99.90;;;;;;5082165;28;20040;-84
2023/06/01 06:20:47;;;;;;;7.38;3.60;;;12.20;99.90;;;;;;5088048;28;20040;-83
2023/06/01 06:23:13;;;;;;;6.45;3.10;;;12.00;99.90;;;;;;5109069;28;20696;-84
2023/06/01 06:25:40;;;;;;;5.20;3.00;;;12.00;99.90;;;;;;5108606;28;20885;-82
2023/06/01 06:28:06;;;;;;;6.10;3.80;;;12.00;99.90;;;;;;5085360;28;20051;-83
2023/06/01 06:30:31;;;;;;;9.00;3.03;;;12.00;99.90;;;;;;5076167;28;20522;-82
2023/06/01 06:32:57;;;;;;;6.97;3.35;;;12.00;99.90;;;;;;5068522;28;20060;-83
2023/06/01 06:35:22;;;;;;;6.72;3.40;;;12.00;99.90;;;;;;5067674;28;20071;-83
2023/06/01 06:37:48;;;;;;;8.20;3.55;;;12.10;99.90;;;;;;5070184;28;20047;-82
2023/06/01 06:40:14;;;;;;;4.93;3.08;;;12.10;99.90;;;;;;5068376;28;20078;-83
2023/06/01 06:42:40;;;;;;;8.65;3.30;;;12.20;99.90;;;;;;5068131;28;20052;-83
2023/06/01 06:45:06;;;;;;;9.43;3.80;;;12.20;99.90;;;;;;5051844;28;20044;-84
2023/06/01 06:47:32;;;;;;;5.00;3.40;;;12.20;99.90;;;;;;5068029;28;20040;-84
2023/06/01 06:49:57;;;;;;;5.90;3.47;;;12.30;99.90;;;;;;5067381;28;20156;-85
2023/06/01 06:52:23;;;;;;;7.20;3.70;;;12.30;99.90;;;;;;5104261;28;20046;-86
2023/06/01 06:54:48;;;;;;;7.22;3.47;;;12.40;99.90;;;;;;5108953;28;20088;-86
2023/06/01 06:57:14;;;;;;;5.53;3.25;;;12.40;99.90;;;;;;5109744;28;20501;-87
2023/06/01 06:59:40;;;;;;;5.90;2.90;;;12.50;99.90;;;;;;5109787;28;20054;-84
2023/06/01 07:02:06;;;;;;;6.88;3.40;;;12.50;99.90;;;;;;5091273;28;20051;-86
2023/06/01 07:04:31;;;;;;;6.60;3.10;;;12.50;99.90;;;;;;5108338;28;20046;-85
2023/06/01 07:06:57;;;;;;;5.82;3.20;;;12.60;99.90;;;;;;5105221;28;20047;-84
2023/06/01 07:09:23;;;;;;;7.15;3.80;;;12.60;99.90;;;;;;5108393;28;20163;-85
2023/06/01 07:11:48;;;;;;;6.25;3.25;;;12.70;99.90;;;;;;5088422;28;20135;-84
2023/06/01 07:14:15;;;;;;;7.15;3.45;;;12.80;99.90;;;;;;5087627;28;20051;-85
2023/06/01 07:16:40;;;;;;;6.03;3.45;;;13.00;99.90;;;;;;5088026;28;20094;-86
2023/06/01 07:19:07;;;;;;;7.05;3.80;;;12.80;99.90;;;;;;5088235;28;20048;-85
2023/06/01 07:21:32;;;;;;;5.80;3.55;;;12.80;99.90;;;;;;5101832;28;20044;-85
2023/06/01 07:23:58;;;;;;;8.32;3.80;;;12.80;99.90;;;;;;5086795;28;20055;-85
2023/06/01 07:26:26;;;;;;;5.40;3.22;;;12.90;99.90;;;;;;5088729;28;20052;-87
2023/06/01 07:28:53;;;;;;;3.90;2.40;;;12.80;99.90;;;;;;5070938;28;20048;-86
2023/06/01 07:31:20;;;;;;;3.75;2.15;;;13.20;99.90;;;;;;5087996;28;20079;-88
2023/06/01 07:33:45;;;;;;;4.40;2.50;;;12.70;99.90;;;;;;5082425;28;20044;-86
2023/06/01 07:36:11;;;;;;;4.30;2.60;;;12.70;99.90;;;;;;5088003;28;20075;-85
2023/06/01 07:38:37;;;;;;;8.25;2.97;;;12.70;99.90;;;;;;5087592;28;20092;-85
2023/06/01 07:41:04;;;;;;;5.88;2.58;;;12.80;99.90;;;;;;5086752;28;20163;-85
2023/06/01 07:43:30;;;;;;;6.13;2.60;;;12.80;99.90;;;;;;5085221;28;20158;-85
2023/06/01 07:45:57;;;;;;;4.50;2.75;;;13.40;99.90;;;;;;5068948;28;20062;-87
2023/06/01 07:48:22;;;;;;;8.82;3.20;;;13.30;99.90;;;;;;5088252;28;20083;-86
2023/06/01 07:50:50;;;;;;;6.00;3.00;;;13.00;99.90;;;;;;5097458;28;20075;-86
2023/06/01 07:53:17;;;;;;;6.30;2.80;;;13.10;99.90;;;;;;5108001;28;20052;-87
2023/06/01 07:55:43;;;;;;;7.03;3.30;;;13.20;99.90;;;;;;5107816;28;20052;-85
2023/06/01 07:58:09;;;;;;;4.07;3.05;;;13.00;99.90;;;;;;5102767;28;20100;-86
2023/06/01 08:00:35;;;;;;;4.57;3.25;;;13.40;99.90;;;;;;5092121;28;20533;-86
2023/06/01 08:03:05;;;;;;;7.45;3.60;;;13.50;99.90;;;;;;5106482;28;20055;-86
2023/06/01 08:05:35;;;;;;;7.50;2.90;;;13.50;99.90;;;;;;5086680;28;20052;-86
2023/06/01 08:08:01;;;;;;;7.68;3.35;;;13.50;99.90;;;;;;5087800;28;20135;-87
2023/06/01 08:10:27;;;;;;;4.70;3.13;;;13.60;99.90;;;;;;5080154;28;20546;-88
2023/06/01 08:12:55;;;;;;;5.40;3.28;;;13.60;99.90;;;;;;5122439;27;20044;-87
2023/06/01 08:15:23;;;;;;;8.13;3.05;;;13.80;99.90;;;;;;5107861;28;20055;-86
2023/06/01 08:17:50;;;;;;;4.93;2.85;;;13.60;99.90;;;;;;5085880;28;20716;-86
2023/06/01 08:20:21;;;;;;;3.40;2.50;;;13.80;99.90;;;;;;5066145;28;20051;-86
2023/06/01 08:22:47;;;;;;;4.28;2.75;;;13.80;99.90;;;;;;5066305;28;20165;-86
2023/06/01 08:25:14;;;;;;;5.95;2.92;;;13.90;99.90;;;;;;5074579;28;20131;-87
2023/06/01 08:27:40;;;;;;;3.85;2.28;;;14.00;99.90;;;;;;5065894;28;20055;-88
2023/06/01 08:30:07;;;;;;;5.15;2.28;;;14.30;99.90;;;;;;5080353;28;20122;-88
2023/06/01 08:32:32;;;;;;;7.10;1.95;;;14.00;99.90;;;;;;5074281;28;20184;-87
2023/06/01 08:34:58;;;;;;;5.03;2.20;;;14.10;99.90;;;;;;5085415;28;20044;-87
2023/06/01 08:37:24;;;;;;;2.35;1.70;;;14.10;99.90;;;;;;5086878;28;20048;-86
2023/06/01 08:39:50;;;;;;;4.63;2.13;;;14.20;99.90;;;;;;5086474;28;20119;-86
2023/06/01 08:42:23;;;;;;;4.68;2.10;;;14.30;99.90;;;;;;5081678;28;20050;-87
2023/06/01 08:44:53;;;;;;;2.97;1.92;;;14.30;99.90;;;;;;5081710;28;20044;-87
2023/06/01 08:47:20;;;;;;;4.20;2.42;;;14.80;99.90;;;;;;5084686;28;20045;-87
2023/06/01 08:49:46;;;;;;;3.25;1.90;;;14.30;99.90;;;;;;5074838;28;20417;-87
2023/06/01 08:52:18;;;;;;;3.67;2.20;;;14.30;99.90;;;;;;5071009;28;20040;-86
2023/06/01 08:54:44;;;;;;;4.30;2.50;;;14.40;99.90;;;;;;5071035;28;20423;-87
2023/06/01 08:57:11;;;;;;;4.40;2.10;;;14.40;99.90;;;;;;5083457;28;20044;-87
2023/06/01 08:59:38;;;;;;;3.38;1.80;;;14.40;99.90;;;;;;5091630;28;20375;-88
2023/06/01 09:02:05;;;;;;;4.13;2.05;;;14.20;99.90;;;;;;5090568;28;20047;-86
2023/06/01 09:04:34;;;;;;;5.30;2.05;;;14.20;99.90;;;;;;5060292;28;20040;-86
2023/06/01 09:06:59;;;;;;;2.92;1.80;;;14.20;99.90;;;;;;5070863;28;20059;-86
2023/06/01 09:09:25;;;;;;;3.33;2.03;;;14.80;99.90;;;;;;5071533;28;20131;-86
2023/06/01 09:12:28;;;;;;;3.67;2.03;;;14.60;99.90;;;;;;5072422;28;20051;-86
2023/06/01 09:15:16;;;;;;;3.67;2.00;;;14.40;99.90;;;;;;5091092;28;20083;-86
2023/06/01 09:17:48;;;;;;;2.53;1.88;;;14.50;99.90;;;;;;5070482;28;20397;-86
2023/06/01 09:20:27;;;;;;;3.50;1.95;;;14.60;99.90;;;;;;5071506;28;20253;-86
2023/06/01 09:22:54;;;;;;;4.85;1.90;;;14.80;99.90;;;;;;5109378;28;20131;-86
2023/06/01 09:25:31;;;;;;;1.88;1.30;;;15.10;99.90;;;;;;5110351;28;20056;-85
2023/06/01 09:27:59;;;;;;;1.77;1.30;;;15.70;99.90;;;;;;5110859;28;20083;-86
2023/06/01 09:30:37;;;;;;;2.88;1.17;;;15.30;99.90;;;;;;5093254;28;20058;-86
2023/06/01 09:33:18;;;;;;;2.45;1.30;;;15.30;99.90;;;;;;5110994;28;21009;-86
2023/06/01 09:35:49;;;;;;;1.45;1.20;;;15.30;99.90;;;;;;5107126;28;20372;-85
2023/06/01 09:38:23;;;;;;;1.25;0.90;;;15.20;99.90;;;;;;5090186;28;20054;-88
2023/06/01 09:41:15;;;;;;;1.52;1.10;;;15.20;99.90;;;;;;5066831;28;20046;-87
2023/06/01 09:43:43;;;;;;;1.65;1.17;;;14.90;99.90;;;;;;5107752;28;20051;-86
2023/06/01 09:46:13;;;;;;;2.67;1.15;;;14.70;99.90;;;;;;5096009;28;20756;-86
2023/06/01 09:48:39;;;;;;;1.08;0.90;;;15.00;99.90;;;;;;5089573;28;20135;-86
2023/06/01 09:51:28;;;;;;;2.35;1.17;;;14.80;99.90;;;;;;5088305;28;20456;-87
2023/06/01 09:53:54;;;;;;;2.17;1.30;;;14.80;99.90;;;;;;5091292;28;20054;-86
2023/06/01 09:56:20;;;;;;;2.90;1.20;;;14.70;99.90;;;;;;5086774;28;20052;-85
2023/06/01 09:58:46;;;;;;;2.10;1.30;;;14.70;99.90;;;;;;5100848;27;20123;-85
2023/06/01 10:01:12;;;;;;;3.05;2.10;;;14.60;99.90;;;;;;5069651;28;20135;-85
2023/06/01 10:03:42;;;;;;;3.28;2.13;;;14.50;99.90;;;;;;5052993;28;20047;-85
2023/06/01 10:06:12;;;;;;;3.42;1.90;;;14.50;99.90;;;;;;5054103;28;20045;-87
2023/06/01 10:08:38;;;;;;;4.55;2.60;;;14.50;99.90;;;;;;5088508;28;20062;-86
2023/06/01 10:11:03;;;;;;;3.20;2.13;;;14.40;99.90;;;;;;5089372;28;20525;-85
2023/06/01 10:13:31;;;;;;;4.78;2.70;;;14.40;99.90;;;;;;5072054;28;20044;-86
2023/06/01 10:15:56;;;;;;;5.90;3.05;;;14.30;99.90;;;;;;5089068;28;20065;-86
2023/06/01 10:18:22;;;;;;;5.13;2.75;;;14.20;99.90;;;;;;5084529;28;20224;-85
2023/06/01 10:20:48;;;;;;;6.50;3.72;;;14.20;99.90;;;;;;5085649;28;20051;-86
2023/06/01 10:23:14;;;;;;;5.18;3.03;;;14.20;99.90;;;;;;5090994;27;20047;-86
2023/06/01 10:25:43;;;;;;;8.05;2.90;;;14.20;99.90;;;;;;5073583;28;20052;-85
2023/06/01 10:28:11;;;;;;;5.47;2.65;;;14.30;99.90;;;;;;5086540;28;20052;-83
2023/06/01 10:30:37;;;;;;;6.20;2.50;;;14.30;99.90;;;;;;5068367;28;20044;-83
2023/06/01 10:33:03;;;;;;;3.42;2.40;;;14.40;99.90;;;;;;5081736;28;20051;-85
2023/06/01 10:35:28;;;;;;;5.88;2.42;;;14.50;99.90;;;;;;5080113;28;20055;-85
2023/06/01 10:38:06;;;;;;;6.03;2.63;;;14.60;99.90;;;;;;5087999;28;20360;-85
2023/06/01 10:40:36;;;;;;;6.00;2.50;;;14.70;99.90;;;;;;5089299;28;20040;-85
2023/06/01 10:43:02;;;;;;;2.75;2.22;;;14.90;99.90;;;;;;5071989;28;20036;-84
2023/06/01 10:45:34;;;;;;;3.58;2.50;;;14.90;99.90;;;;;;5087845;28;20056;-84
2023/06/01 10:48:01;;;;;;;6.47;2.88;;;15.00;99.90;;;;;;5088787;28;20093;-84
2023/06/01 10:50:30;;;;;;;6.70;2.78;;;15.00;99.90;;;;;;5086601;28;20185;-85
2023/06/01 10:52:56;;;;;;;3.83;2.35;;;15.10;99.90;;;;;;5088520;28;20051;-85
2023/06/01 10:55:22;;;;;;;5.20;2.58;;;15.00;99.90;;;;;;5088220;28;20079;-83
2023/06/01 10:57:47;;;;;;;7.70;3.00;;;15.10;99.90;;;;;;5088184;28;20119;-84
2023/06/01 11:00:16;;;;;;;5.60;2.50;;;15.40;99.90;;;;;;5088453;28;20055;-85
2023/06/01 11:02:48;;;;;;;8.20;2.60;;;15.20;99.90;;;;;;5102110;28;20081;-86
2023/06/01 11:05:43;;;;;;;6.32;2.63;;;15.10;99.90;;;;;;5090257;28;20525;-84
2023/06/01 11:08:25;;;;;;;3.67;2.55;;;15.20;99.90;;;;;;5089034;28;20101;-84
2023/06/01 11:10:50;;;;;;;5.27;2.87;;;15.30;99.90;;;;;;5088232;28;20401;-85
2023/06/01 11:13:24;;;;;;;6.00;2.90;;;15.60;99.90;;;;;;5085128;28;20073;-85
2023/06/01 11:16:09;;;;;;;4.72;2.65;;;15.20;99.90;;;;;;5087217;28;20110;-84
2023/06/01 11:18:44;;;;;;;6.18;2.83;;;15.20;99.90;;;;;;5067923;28;20063;-85
2023/06/01 11:21:26;;;;;;;7.28;2.70;;;15.10;99.90;;;;;;5066878;28;20147;-83
2023/06/01 11:23:54;;;;;;;6.20;3.05;;;15.00;99.90;;;;;;5050963;28;20044;-84
2023/06/01 11:26:24;;;;;;;5.60;2.90;;;15.00;99.90;;;;;;5068764;28;20093;-84
2023/06/01 11:28:51;;;;;;;4.88;2.75;;;15.00;99.90;;;;;;5067250;28;20062;-84
2023/06/01 11:31:19;;;;;;;7.82;2.83;;;15.00;99.90;;;;;;5086151;28;20123;-84
2023/06/01 11:33:53;;;;;;;7.22;2.90;;;15.00;99.90;;;;;;5102045;28;20119;-84
2023/06/01 11:36:24;;;;;;;6.03;2.90;;;15.00;99.90;;;;;;5054576;28;20044;-85
2023/06/01 11:38:51;;;;;;;9.02;3.60;;;15.50;99.90;;;;;;5063974;28;20356;-84
2023/06/01 11:41:18;;;;;;;7.50;3.25;;;15.40;99.90;;;;;;5073365;28;20127;-84
2023/06/01 11:43:53;;;;;;;4.10;2.45;;;15.50;99.90;;;;;;5084771;28;20449;-85
2023/06/01 11:46:18;;;;;;;6.78;2.67;;;15.60;99.90;;;;;;5077465;28;20048;-85
2023/06/01 11:49:05;;;;;;;5.68;2.28;;;15.80;99.90;;;;;;5067787;28;20140;-84
2023/06/01 11:51:33;;;;;;;4.80;2.47;;;15.90;99.90;;;;;;5076830;28;20446;-84
2023/06/01 11:54:03;;;;;;;5.03;2.20;;;15.90;99.90;;;;;;5097490;28;20044;-85
2023/06/01 11:56:30;;;;;;;5.70;2.65;;;16.10;99.90;;;;;;5085314;28;20071;-85
2023/06/01 11:59:00;;;;;;;3.70;2.20;;;16.20;99.90;;;;;;5086728;28;20070;-86
2023/06/01 12:01:27;;;;;;;4.18;2.58;;;16.20;99.90;;;;;;5085557;28;20044;-84
2023/06/01 12:03:54;;;;;;;5.15;2.38;;;16.30;99.90;;;;;;5068122;28;20571;-83
2023/06/01 12:06:27;;;;;;;6.88;2.42;;;16.20;99.90;;;;;;5085604;28;20500;-84
2023/06/01 12:08:56;;;;;;;6.22;2.63;;;16.30;99.90;;;;;;5085771;28;20055;-84
2023/06/01 12:11:28;;;;;;;3.92;2.38;;;16.40;99.90;;;;;;5084743;28;20044;-83
2023/06/01 12:13:57;;;;;;;3.50;2.08;;;16.70;99.90;;;;;;5084564;28;20115;-85
2023/06/01 12:16:25;;;;;;;4.35;2.30;;;16.40;99.80;;;;;;5086186;28;20043;-84
2023/06/01 12:18:51;;;;;;;3.97;2.47;;;16.50;99.40;;;;;;5104515;28;20054;-83
2023/06/01 12:21:17;;;;;;;3.17;2.38;;;16.30;99.00;;;;;;5087663;28;20081;-85
2023/06/01 12:23:49;;;;;;;6.50;2.80;;;16.30;99.20;;;;;;5069698;28;20143;-85
2023/06/01 12:26:15;;;;;;;5.43;2.63;;;16.30;99.30;;;;;;5086340;28;20407;-85
2023/06/01 12:28:55;;;;;;;4.75;2.50;;;16.20;99.10;;;;;;5069243;28;20040;-84
2023/06/01 12:31:21;;;;;;;6.30;2.58;;;16.30;98.70;;;;;;5074945;28;20052;-84
2023/06/01 12:33:48;;;;;;;6.43;2.78;;;16.40;99.10;;;;;;5086207;28;20063;-83
2023/06/01 12:36:34;;;;;;;6.72;2.80;;;16.50;98.80;;;;;;5087585;28;20167;-84
2023/06/01 12:39:03;;;;;;;8.50;3.47;;;16.50;97.60;;;;;;5086946;28;20188;-84
2023/06/01 12:41:28;;;;;;;7.63;2.50;;;16.50;98.00;;;;;;5069235;28;20044;-83
2023/06/01 12:43:55;;;;;;;5.25;2.35;;;16.50;98.00;;;;;;5085091;28;20535;-85
2023/06/01 12:46:30;;;;;;;8.68;2.55;;;16.50;97.80;;;;;;5069415;28;20070;-84
2023/06/01 12:49:16;;;;;;;3.58;2.42;;;16.40;97.40;;;;;;5086915;28;20056;-86
2023/06/01 12:51:42;;;;;;;7.68;2.60;;;16.40;96.70;;;;;;5087815;28;20448;-86